Celebrity Reflection — 9HA3047 — position and weather

sailwx.info

Track history (hours):
 
Tides and Currents Weather Stations Pressure Air Temp Water Temp Dewpoint Dewpoint Depression Visibility Wind Speed Wind Dir Waves Ship Positions

Celebrity Reflection

Last reported at 2017-May-26 10:56 UTC. Time now 2017-May-26 16:48 UTC.
Position N 37°56' E 023°37'.

Length 319 m; draft 8.6 m.

Type: Passenger vessel. MMSI: 229074000.

Date/timePositionNaut miles runAvg speedWind from/ knotsBaromVisibWave heightAir tempDewpointWater temp
2017-May-26 10:56N 37°56' E 023°37'0 0.0
2017-May-26 10:29N 37°56' E 023°37'0 0.0
2017-May-26 09:59N 37°56' E 023°37'0 0.0
2017-May-26 09:29N 37°56' E 023°37'0 0.0
2017-May-26 08:59N 37°56' E 023°37'0 0.0
2017-May-26 08:29N 37°56' E 023°37'2 4.9
2017-May-26 08:00N 37°54' E 023°36'2152.8 130 / 71015.0 5.4 19.8
2017-May-26 07:59N 37°56' E 023°37'0 0.0
2017-May-26 07:29N 37°56' E 023°37'0 0.0
2017-May-26 07:00N 37°56' E 023°37'0 0.0
2017-May-26 05:55N 37°56' E 023°37'0 0.0
2017-May-26 05:27N 37°56' E 023°37'0 0.0
2017-May-26 05:00N 37°56' E 023°37'0 0.0
2017-May-26 04:30N 37°56' E 023°37'0 0.0
2017-May-26 04:00N 37°56' E 023°37'0 0.0
2017-May-26 03:30N 37°56' E 023°37'0 0.0
2017-May-26 03:00N 37°56' E 023°37'0 0.0
2017-May-26 02:30N 37°56' E 023°37'0 0.0
2017-May-26 02:00N 37°56' E 023°37'0 0.1
2017-May-26 01:30N 37°56' E 023°37'2 3.1
2017-May-26 01:00N 37°55' E 023°37'713.8
2017-May-26 00:31N 37°48' E 023°41'713.4
2017-May-26 00:00N 37°42' E 023°44'713.6
2017-May-25 23:31N 37°36' E 023°48'713.4
2017-May-25 23:00N 37°30' E 023°51'713.7
2017-May-25 22:30N 37°24' E 023°55'15 9.6
2017-May-25 21:00N 37°12' E 024°06'1224.8 180 / 141013.010.8 20.3
2017-May-25 20:30N 37°04' E 024°17'713.6
2017-May-25 20:01N 36°59' E 024°24'5279.2
2017-May-25 20:00N 37°00' E 024°18'1122.7 180 / 171014.0 5.4 20.6
2017-May-25 19:31N 36°55' E 024°30'1013.6
2017-May-25 18:47N 36°49' E 024°40'4311.4
2017-May-25 15:00N 36°24' E 025°24'0 0.0 220 / 91014.0 5.4 21.0 18.0
2017-May-25 12:00N 36°24' E 025°24'5 1.0 1015.010.8
2017-May-25 07:00N 36°24' E 025°18'34 4.9 180 / 91014.0 5.4 19.8
2017-May-25 00:00N 36°18' E 026°00'4411.0 250 / 111015.010.8
2017-May-24 20:00N 36°12' E 026°54'6410.7 260 / 121015.0 5.4 19.6
2017-May-24 14:00N 36°24' E 028°12'0 0.0
2017-May-24 13:00N 36°24' E 028°12'0 0.0 230 / 191015.010.8 22.5
2017-May-24 07:00N 36°24' E 028°12'19 3.9 280 / 151015.0 5.4 21.5
2017-May-24 02:00N 36°24' E 027°48'3014.8 010 / 91014.0 5.4 21.0 20.0
2017-May-24 00:00N 36°30' E 027°12'5012.4 340 / 171015.010.8 22.1
2017-May-23 20:00N 36°54' E 026°18'2913.5 340 / 111014.0 5.4 21.9
2017-May-23 17:50N 37°13' E 025°50'413.7
2017-May-23 17:30N 37°17' E 025°48'1013.5
2017-May-23 16:45N 37°25' E 025°40'313.2
2017-May-23 16:31N 37°28' E 025°38'713.4
2017-May-23 16:01N 37°31' E 025°30'713.2
2017-May-23 15:31N 37°32' E 025°22'611.4
2017-May-23 15:00N 37°29' E 025°17'2 2.1
2017-May-23 14:00N 37°28' E 025°19'0 0.0
2017-May-23 13:30N 37°28' E 025°19'0 0.0
2017-May-23 13:00N 37°28' E 025°19'4291.7
2017-May-23 13:00N 37°24' E 025°18'4 8.3 350 / 201014.0 5.4 20.0 18.0
2017-May-23 12:30N 37°28' E 025°19'0 0.0
2017-May-23 12:00N 37°28' E 025°19'4291.7
2017-May-23 12:00N 37°24' E 025°18'4 8.3 340 / 201017.010.8 20.3
2017-May-23 11:30N 37°28' E 025°19'0 0.0
2017-May-23 11:00N 37°28' E 025°19'0 0.0
2017-May-23 10:30N 37°28' E 025°19'0 0.0
2017-May-23 10:00N 37°28' E 025°19'0 0.0
2017-May-23 09:30N 37°28' E 025°19'0 0.0
2017-May-23 09:00N 37°28' E 025°19'4297.6
2017-May-23 09:00N 37°24' E 025°18'4 8.3 340 / 141015.0 5.4 19.7
2017-May-23 08:30N 37°28' E 025°19'0 0.0
2017-May-23 08:00N 37°28' E 025°19'0 0.0
2017-May-23 07:30N 37°28' E 025°19'0 0.0
2017-May-23 07:00N 37°28' E 025°19'0 0.0
2017-May-23 06:30N 37°28' E 025°19'0 0.0
2017-May-23 06:00N 37°28' E 025°19'0 0.0
2017-May-23 05:30N 37°28' E 025°19'0 0.0
2017-May-23 05:00N 37°28' E 025°19'0 0.0
2017-May-23 04:30N 37°28' E 025°19'0 0.0
2017-May-23 04:01N 37°28' E 025°19'0 0.2
2017-May-23 03:31N 37°28' E 025°19'4 7.5
2017-May-23 03:00N 37°28' E 025°15'714.3
2017-May-23 02:30N 37°26' E 025°06'815.1
2017-May-23 02:00N 37°21' E 024°59'3211.8
2017-May-23 02:00N 37°24' E 025°00'1122.1
2017-May-23 01:30N 37°16' E 024°51'2315.3
2017-May-23 00:00N 37°00' E 024°30'2615.3 340 / 141015.010.8 19.9
2017-May-22 22:17N 36°48' E 024°01'415.0
2017-May-22 22:00N 36°45' E 023°57'4916.3
2017-May-22 19:00N 36°18' E 023°06'4414.5 280 / 111015.0 5.4 19.3
2017-May-22 16:00N 36°18' E 022°12'9215.4 300 / 171014.0 5.4 23.0 18.0
2017-May-22 10:00N 36°12' E 020°18'5814.6 020 / 251014.010.8 19.2
2017-May-22 06:00N 36°06' E 019°06'4916.3 360 / 291015.0 5.4 18.6
2017-May-22 03:00N 36°00' E 018°06'11216.0 350 / 291012.0 5.4 19.0 19.0
2017-May-21 20:00N 35°54' E 015°48'3715.6 360 / 251014.0 5.4 19.7
2017-May-21 17:38N 35°58' E 015°03'215.7
2017-May-21 17:30N 35°58' E 015°00'815.7
2017-May-21 17:00N 35°58' E 014°50'1445520141.2
2017-May-21 17:00N 35°54' W 014°54'14382940.5 300 / 221017.0 5.4 20.0 18.0
2017-May-21 16:30N 35°56' E 014°41'714.7
2017-May-21 16:00N 35°54' E 014°32'2 0.9
2017-May-21 14:00N 35°54' E 014°30'6 0.9 300 / 111016.010.8 21.5
2017-May-21 07:00N 35°48' E 014°30'6 3.5 330 / 161017.0 5.4 20.7
2017-May-21 05:21N 35°54' E 014°31'1 2.2
2017-May-21 05:00N 35°54' E 014°32'5 9.5
2017-May-21 04:30N 35°58' E 014°36'612.7
2017-May-21 04:00N 36°03' E 014°40'3281.7
2017-May-21 04:00N 36°06' E 014°42'3 6.3 320 / 261017.0 5.4 17.9
2017-May-21 03:30N 36°08' E 014°45'712.9
2017-May-21 03:00N 36°14' E 014°49'612.9
2017-May-21 02:30N 36°19' E 014°54'1313.1
2017-May-21 01:32N 36°29' E 015°03'012.9
2017-May-21 01:30N 36°29' E 015°04'611.5
2017-May-21 01:00N 36°24' E 015°00'5216.2 310 / 181017.0 5.4 18.4 18.0
2017-May-20 21:49N 37°11' E 015°26'412.7
2017-May-20 21:28N 37°15' E 015°27'4 8.7
2017-May-20 21:00N 37°12' E 015°24'11153.4 010 / 221017.010.8 20.5 20.0
2017-May-20 20:55N 37°22' E 015°28'1712.7
2017-May-20 19:33N 37°40' E 015°31'112.6
2017-May-20 19:28N 37°41' E 015°31'612.8
2017-May-20 19:00N 37°47' E 015°32'612.8
2017-May-20 18:30N 37°53' E 015°33'613.0
2017-May-20 18:00N 37°59' E 015°33'3172.8
2017-May-20 18:00N 38°00' E 015°30'713.7 020 / 121017.0 5.4 22.1
2017-May-20 17:30N 38°06' E 015°34'612.9
2017-May-20 17:01N 38°12' E 015°35'1 2.4
2017-May-20 16:28N 38°11' E 015°33'0 0.0
2017-May-20 15:58N 38°11' E 015°33'0 0.0
2017-May-20 15:28N 38°11' E 015°33'0 0.0
2017-May-20 14:58N 38°11' E 015°33'0 0.0
2017-May-20 14:29N 38°11' E 015°33'612.6
2017-May-20 14:00N 38°06' E 015°30'611.8
2017-May-20 13:28N 38°11' E 015°33'0 0.0
2017-May-20 12:58N 38°11' E 015°33'0 0.0
2017-May-20 12:22N 38°11' E 015°33'0 0.0
2017-May-20 11:58N 38°11' E 015°33'0 0.0
2017-May-20 11:28N 38°11' E 015°33'0 0.0
2017-May-20 10:58N 38°11' E 015°33'0 0.0
2017-May-20 10:28N 38°11' E 015°33'0 0.0
2017-May-20 09:58N 38°11' E 015°33'0 0.0
2017-May-20 09:28N 38°11' E 015°33'0 0.0
2017-May-20 08:58N 38°11' E 015°33'0 0.0
2017-May-20 08:25N 38°11' E 015°33'0 0.1
2017-May-20 08:00N 38°11' E 015°34'510.0
2017-May-20 07:31N 38°15' E 015°38'713.7
2017-May-20 07:00N 38°22' E 015°38'918.5
2017-May-20 06:31N 38°30' E 015°33'1018.8
2017-May-20 06:00N 38°38' E 015°27'8751.4
2017-May-20 06:00N 38°42' E 015°18'511.2 160 / 51018.0 5.4 19.7
2017-May-20 05:31N 38°47' E 015°22'918.5
2017-May-20 05:01N 38°54' E 015°15'918.6
2017-May-20 04:30N 39°03' E 015°09'8518.9
2017-May-20 00:00N 40°00' E 013°48'5618.6 240 / 171015.0 5.4 19.6
2017-May-19 21:00N 40°42' E 013°00'10217.1 190 / 141015.010.8 21.1 20.9
2017-May-19 15:00N 42°06' E 011°42'0 0.0 150 / 231015.0 5.4 20.4
2017-May-19 13:00N 42°06' E 011°42'0 0.0 150 / 151015.0 5.4 20.0 18.0
2017-May-19 10:00N 42°06' E 011°42'3 1.9 160 / 171016.010.8 23.2 18.7
2017-May-19 08:14N 42°06' E 011°46'3 0.6
2017-May-19 03:00N 42°06' E 011°42'21 8.5 160 / 51020.0 5.4 19.0
2017-May-19 00:31N 41°57' E 011°17'013.7
2017-May-19 00:30N 41°56' E 011°17'714.1
2017-May-19 00:00N 41°54' E 011°08'8506.3
2017-May-19 00:00N 41°48' E 011°00'3 5.9 120 / 151014.0 5.4 18.9 18.0
2017-May-18 23:30N 41°51' E 010°58'1016.5
2017-May-18 22:55N 41°47' E 010°46'1916.9
2017-May-18 21:48N 41°40' E 010°22'516.6
2017-May-18 21:30N 41°38' E 010°16'816.7
2017-May-18 21:00N 41°35' E 010°06'159.7
2017-May-18 21:00N 41°36' E 010°06'817.5 140 / 151015.010.8 20.2 19.3
2017-May-18 20:30N 41°32' E 009°56'916.4
2017-May-18 19:59N 41°29' E 009°45'816.2
2017-May-18 19:30N 41°26' E 009°36'916.0
2017-May-18 18:56N 41°23' E 009°24'715.6
2017-May-18 18:29N 41°18' E 009°17'815.1
2017-May-18 17:59N 41°18' E 009°07'815.5
2017-May-18 17:30N 41°17' E 008°57'815.9
2017-May-18 17:00N 41°16' E 008°47'815.7
2017-May-18 16:31N 41°14' E 008°37'1324.8
2017-May-18 16:00N 41°24' E 008°48'207144.5
2017-May-18 15:59N 41°13' E 008°26'715.4
2017-May-18 15:30N 41°10' E 008°17'815.5
2017-May-18 15:00N 41°07' E 008°08'1615.6
2017-May-18 14:00N 40°59' E 007°50'815.6
2017-May-18 13:30N 40°55' E 007°41'815.6
2017-May-18 13:00N 40°51' E 007°32'7999.2
2017-May-18 13:00N 40°48' E 007°24'1 2.6 150 / 41015.0 5.4 20.1 18.0
2017-May-18 12:30N 40°48' E 007°22'815.6
2017-May-18 11:59N 40°45' E 007°13'815.7
2017-May-18 11:29N 40°41' E 007°04'715.7
2017-May-18 11:00N 40°37' E 006°55'815.5
2017-May-18 10:31N 40°34' E 006°46'815.4
2017-May-18 10:01N 40°30' E 006°37'12683.5
2017-May-18 10:00N 40°24' E 006°24'4 8.4 120 / 121015.010.8 21.4 19.9
2017-May-18 09:31N 40°26' E 006°28'815.2
2017-May-18 09:00N 40°23' E 006°20'815.0
2017-May-18 08:29N 40°19' E 006°11'814.9
2017-May-18 07:59N 40°15' E 006°02'815.4
2017-May-18 07:29N 40°12' E 005°53'1515.4
2017-May-18 06:32N 40°05' E 005°36'115.2
2017-May-18 06:30N 40°05' E 005°36'715.4
2017-May-18 06:01N 40°01' E 005°27'815.6
2017-May-18 05:31N 39°57' E 005°18'815.7
2017-May-18 05:01N 39°53' E 005°09'2132.4
2017-May-18 05:00N 39°54' E 005°12'1020.8 110 / 81015.0 5.4 18.9
2017-May-18 04:30N 39°50' E 005°00'815.8
2017-May-18 03:59N 39°45' E 004°51'815.8
2017-May-18 03:29N 39°42' E 004°42'815.5
2017-May-18 02:59N 39°38' E 004°33'715.6
2017-May-18 02:30N 39°34' E 004°25'815.4
2017-May-18 02:01N 39°31' E 004°16'815.5
2017-May-18 01:30N 39°27' E 004°07'815.5
2017-May-18 00:59N 39°24' E 003°57'715.5
2017-May-18 00:31N 39°20' E 003°49'815.6
2017-May-18 00:01N 39°16' E 003°40'815.5
2017-May-17 23:30N 39°13' E 003°31'815.5
2017-May-17 23:00N 39°09' E 003°23'815.4
2017-May-17 22:31N 39°06' E 003°14'815.6
2017-May-17 22:00N 39°05' E 003°04'815.7
2017-May-17 21:30N 39°04' E 002°54'815.3
2017-May-17 21:01N 39°03' E 002°44'7397.9
2017-May-17 21:00N 39°00' E 002°36'2 4.2 070 / 71018.010.8 20.5 20.5
2017-May-17 20:30N 39°01' E 002°34'815.6
2017-May-17 20:00N 39°00' E 002°24'815.7
2017-May-17 19:30N 38°59' E 002°14'815.6
2017-May-17 19:01N 38°58' E 002°04'815.5
2017-May-17 18:30N 38°57' E 001°54'815.4
2017-May-17 18:00N 38°56' E 001°45'815.5
2017-May-17 17:30N 38°55' E 001°35'612.2
2017-May-17 17:00N 38°54' E 001°27'13316.6
2017-May-17 09:00N 38°54' W 001°24'13341.4 070 / 71021.010.8 21.8 20.4
2017-May-17 05:47N 38°54' E 001°27'0 0.9
2017-May-17 05:25N 38°54' E 001°27'2 4.7
2017-May-17 05:00N 38°53' E 001°29'13916176.8
2017-May-17 05:00N 38°48' W 001°30'143287.4 030 / 131024.0 5.4 19.1
2017-May-17 04:30N 38°48' E 001°33'612.8
2017-May-17 04:00N 38°43' E 001°38'612.5
2017-May-17 03:30N 38°37' E 001°37'613.0
2017-May-17 03:00N 38°33' E 001°31'713.0
2017-May-17 02:30N 38°29' E 001°24'712.8
2017-May-17 01:57N 38°25' E 001°16'613.1
2017-May-17 01:30N 38°22' E 001°10'612.9
2017-May-17 01:00N 38°18' E 001°03'2146.5
2017-May-17 01:00N 38°18' E 001°06'816.6 010 / 131022.0 5.4 19.0 18.0
2017-May-17 00:30N 38°15' E 000°56'612.8
2017-May-17 00:00N 38°11' E 000°50'612.9
2017-May-16 23:30N 38°08' E 000°43'713.1
2017-May-16 23:00N 38°04' E 000°36'612.9
2017-May-16 22:30N 38°00' E 000°29'612.9
2017-May-16 22:00N 37°56' E 000°23'5307.9
2017-May-16 22:00N 37°54' E 000°18'2 4.2 050 / 131023.010.8 20.7 19.6
2017-May-16 21:30N 37°53' E 000°16'612.8
2017-May-16 21:00N 37°49' E 000°09'612.7
2017-May-16 20:30N 37°45' E 000°03'612.8
2017-May-16 20:00N 37°42' W 000°04'713.0
2017-May-16 19:30N 37°38' W 000°11'612.9
2017-May-16 19:00N 37°35' W 000°17'612.7
2017-May-16 18:30N 37°31' W 000°24'612.2
2017-May-16 18:00N 37°29' W 000°31'712.9
2017-May-16 17:30N 37°29' W 000°40'613.0
2017-May-16 17:00N 37°29' W 000°48'5352.0
2017-May-16 17:00N 37°24' W 000°48'8 1.9 030 / 191023.0 5.4 19.8
2017-May-16 13:00N 37°30' W 000°54'   050 / 91024.0 5.4 24.3 18.0
Track history (hours):
 
Tides and Currents Weather Stations Pressure Air Temp Water Temp Dewpoint Dewpoint Depression Visibility Wind Speed Wind Dir Waves Ship Positions

Celebrity Reflection

Last reported at 2017-May-26 10:56 UTC. Time now 2017-May-26 16:48 UTC.
Position N 37°56' E 023°37'.

Length 319 m; draft 8.6 m.

Type: Passenger vessel. MMSI: 229074000.

Date/timePositionNaut miles runAvg speedWind from/ knotsBaromVisibWave heightAir tempDewpointWater temp
2017-May-26 10:56N 37°56' E 023°37'0 0.0
2017-May-26 10:29N 37°56' E 023°37'0 0.0
2017-May-26 09:59N 37°56' E 023°37'0 0.0
2017-May-26 09:29N 37°56' E 023°37'0 0.0
2017-May-26 08:59N 37°56' E 023°37'0 0.0
2017-May-26 08:29N 37°56' E 023°37'2 4.9
2017-May-26 08:00N 37°54' E 023°36'2152.8 130 / 71015.0 5.4 19.8
2017-May-26 07:59N 37°56' E 023°37'0 0.0
2017-May-26 07:29N 37°56' E 023°37'0 0.0
2017-May-26 07:00N 37°56' E 023°37'0 0.0
2017-May-26 05:55N 37°56' E 023°37'0 0.0
2017-May-26 05:27N 37°56' E 023°37'0 0.0
2017-May-26 05:00N 37°56' E 023°37'0 0.0
2017-May-26 04:30N 37°56' E 023°37'0 0.0
2017-May-26 04:00N 37°56' E 023°37'0 0.0
2017-May-26 03:30N 37°56' E 023°37'0 0.0
2017-May-26 03:00N 37°56' E 023°37'0 0.0
2017-May-26 02:30N 37°56' E 023°37'0 0.0
2017-May-26 02:00N 37°56' E 023°37'0 0.1
2017-May-26 01:30N 37°56' E 023°37'2 3.1
2017-May-26 01:00N 37°55' E 023°37'713.8
2017-May-26 00:31N 37°48' E 023°41'713.4
2017-May-26 00:00N 37°42' E 023°44'713.6
2017-May-25 23:31N 37°36' E 023°48'713.4
2017-May-25 23:00N 37°30' E 023°51'713.7
2017-May-25 22:30N 37°24' E 023°55'15 9.6
2017-May-25 21:00N 37°12' E 024°06'1224.8 180 / 141013.010.8 20.3
2017-May-25 20:30N 37°04' E 024°17'713.6
2017-May-25 20:01N 36°59' E 024°24'5279.2
2017-May-25 20:00N 37°00' E 024°18'1122.7 180 / 171014.0 5.4 20.6
2017-May-25 19:31N 36°55' E 024°30'1013.6
2017-May-25 18:47N 36°49' E 024°40'4311.4
2017-May-25 15:00N 36°24' E 025°24'0 0.0 220 / 91014.0 5.4 21.0 18.0
2017-May-25 12:00N 36°24' E 025°24'5 1.0 1015.010.8
2017-May-25 07:00N 36°24' E 025°18'34 4.9 180 / 91014.0 5.4 19.8
2017-May-25 00:00N 36°18' E 026°00'4411.0 250 / 111015.010.8
2017-May-24 20:00N 36°12' E 026°54'6410.7 260 / 121015.0 5.4 19.6
2017-May-24 14:00N 36°24' E 028°12'0 0.0
2017-May-24 13:00N 36°24' E 028°12'0 0.0 230 / 191015.010.8 22.5
2017-May-24 07:00N 36°24' E 028°12'19 3.9 280 / 151015.0 5.4 21.5
2017-May-24 02:00N 36°24' E 027°48'3014.8 010 / 91014.0 5.4 21.0 20.0
2017-May-24 00:00N 36°30' E 027°12'5012.4 340 / 171015.010.8 22.1
2017-May-23 20:00N 36°54' E 026°18'2913.5 340 / 111014.0 5.4 21.9
2017-May-23 17:50N 37°13' E 025°50'413.7
2017-May-23 17:30N 37°17' E 025°48'1013.5
2017-May-23 16:45N 37°25' E 025°40'313.2
2017-May-23 16:31N 37°28' E 025°38'713.4
2017-May-23 16:01N 37°31' E 025°30'713.2
2017-May-23 15:31N 37°32' E 025°22'611.4
2017-May-23 15:00N 37°29' E 025°17'2 2.1
2017-May-23 14:00N 37°28' E 025°19'0 0.0
2017-May-23 13:30N 37°28' E 025°19'0 0.0
2017-May-23 13:00N 37°28' E 025°19'4291.7
2017-May-23 13:00N 37°24' E 025°18'4 8.3 350 / 201014.0 5.4 20.0 18.0
2017-May-23 12:30N 37°28' E 025°19'0 0.0
2017-May-23 12:00N 37°28' E 025°19'4291.7
2017-May-23 12:00N 37°24' E 025°18'4 8.3 340 / 201017.010.8 20.3
2017-May-23 11:30N 37°28' E 025°19'0 0.0
2017-May-23 11:00N 37°28' E 025°19'0 0.0
2017-May-23 10:30N 37°28' E 025°19'0 0.0
2017-May-23 10:00N 37°28' E 025°19'0 0.0
2017-May-23 09:30N 37°28' E 025°19'0 0.0
2017-May-23 09:00N 37°28' E 025°19'4297.6
2017-May-23 09:00N 37°24' E 025°18'4 8.3 340 / 141015.0 5.4 19.7
2017-May-23 08:30N 37°28' E 025°19'0 0.0
2017-May-23 08:00N 37°28' E 025°19'0 0.0
2017-May-23 07:30N 37°28' E 025°19'0 0.0
2017-May-23 07:00N 37°28' E 025°19'0 0.0
2017-May-23 06:30N 37°28' E 025°19'0 0.0
2017-May-23 06:00N 37°28' E 025°19'0 0.0
2017-May-23 05:30N 37°28' E 025°19'0 0.0
2017-May-23 05:00N 37°28' E 025°19'0 0.0
2017-May-23 04:30N 37°28' E 025°19'0 0.0
2017-May-23 04:01N 37°28' E 025°19'0 0.2
2017-May-23 03:31N 37°28' E 025°19'4 7.5
2017-May-23 03:00N 37°28' E 025°15'714.3
2017-May-23 02:30N 37°26' E 025°06'815.1
2017-May-23 02:00N 37°21' E 024°59'3211.8
2017-May-23 02:00N 37°24' E 025°00'1122.1
2017-May-23 01:30N 37°16' E 024°51'2315.3
2017-May-23 00:00N 37°00' E 024°30'2615.3 340 / 141015.010.8 19.9
2017-May-22 22:17N 36°48' E 024°01'415.0
2017-May-22 22:00N 36°45' E 023°57'4916.3
2017-May-22 19:00N 36°18' E 023°06'4414.5 280 / 111015.0 5.4 19.3
2017-May-22 16:00N 36°18' E 022°12'9215.4 300 / 171014.0 5.4 23.0 18.0
2017-May-22 10:00N 36°12' E 020°18'5814.6 020 / 251014.010.8 19.2
2017-May-22 06:00N 36°06' E 019°06'4916.3 360 / 291015.0 5.4 18.6
2017-May-22 03:00N 36°00' E 018°06'11216.0 350 / 291012.0 5.4 19.0 19.0
2017-May-21 20:00N 35°54' E 015°48'3715.6 360 / 251014.0 5.4 19.7
2017-May-21 17:38N 35°58' E 015°03'215.7
2017-May-21 17:30N 35°58' E 015°00'815.7
2017-May-21 17:00N 35°58' E 014°50'1445520141.2
2017-May-21 17:00N 35°54' W 014°54'14382940.5 300 / 221017.0 5.4 20.0 18.0
2017-May-21 16:30N 35°56' E 014°41'714.7
2017-May-21 16:00N 35°54' E 014°32'2 0.9
2017-May-21 14:00N 35°54' E 014°30'6 0.9 300 / 111016.010.8 21.5
2017-May-21 07:00N 35°48' E 014°30'6 3.5 330 / 161017.0 5.4 20.7
2017-May-21 05:21N 35°54' E 014°31'1 2.2
2017-May-21 05:00N 35°54' E 014°32'5 9.5
2017-May-21 04:30N 35°58' E 014°36'612.7
2017-May-21 04:00N 36°03' E 014°40'3281.7
2017-May-21 04:00N 36°06' E 014°42'3 6.3 320 / 261017.0 5.4 17.9
2017-May-21 03:30N 36°08' E 014°45'712.9
2017-May-21 03:00N 36°14' E 014°49'612.9
2017-May-21 02:30N 36°19' E 014°54'1313.1
2017-May-21 01:32N 36°29' E 015°03'012.9
2017-May-21 01:30N 36°29' E 015°04'611.5
2017-May-21 01:00N 36°24' E 015°00'5216.2 310 / 181017.0 5.4 18.4 18.0
2017-May-20 21:49N 37°11' E 015°26'412.7
2017-May-20 21:28N 37°15' E 015°27'4 8.7
2017-May-20 21:00N 37°12' E 015°24'11153.4 010 / 221017.010.8 20.5 20.0
2017-May-20 20:55N 37°22' E 015°28'1712.7
2017-May-20 19:33N 37°40' E 015°31'112.6
2017-May-20 19:28N 37°41' E 015°31'612.8
2017-May-20 19:00N 37°47' E 015°32'612.8
2017-May-20 18:30N 37°53' E 015°33'613.0
2017-May-20 18:00N 37°59' E 015°33'3172.8
2017-May-20 18:00N 38°00' E 015°30'713.7 020 / 121017.0 5.4 22.1
2017-May-20 17:30N 38°06' E 015°34'612.9
2017-May-20 17:01N 38°12' E 015°35'1 2.4
2017-May-20 16:28N 38°11' E 015°33'0 0.0
2017-May-20 15:58N 38°11' E 015°33'0 0.0
2017-May-20 15:28N 38°11' E 015°33'0 0.0
2017-May-20 14:58N 38°11' E 015°33'0 0.0
2017-May-20 14:29N 38°11' E 015°33'612.6
2017-May-20 14:00N 38°06' E 015°30'611.8
2017-May-20 13:28N 38°11' E 015°33'0 0.0
2017-May-20 12:58N 38°11' E 015°33'0 0.0
2017-May-20 12:22N 38°11' E 015°33'0 0.0
2017-May-20 11:58N 38°11' E 015°33'0 0.0
2017-May-20 11:28N 38°11' E 015°33'0 0.0
2017-May-20 10:58N 38°11' E 015°33'0 0.0
2017-May-20 10:28N 38°11' E 015°33'0 0.0
2017-May-20 09:58N 38°11' E 015°33'0 0.0
2017-May-20 09:28N 38°11' E 015°33'0 0.0
2017-May-20 08:58N 38°11' E 015°33'0 0.0
2017-May-20 08:25N 38°11' E 015°33'0 0.1
2017-May-20 08:00N 38°11' E 015°34'510.0
2017-May-20 07:31N 38°15' E 015°38'713.7
2017-May-20 07:00N 38°22' E 015°38'918.5
2017-May-20 06:31N 38°30' E 015°33'1018.8
2017-May-20 06:00N 38°38' E 015°27'8751.4
2017-May-20 06:00N 38°42' E 015°18'511.2 160 / 51018.0 5.4 19.7
2017-May-20 05:31N 38°47' E 015°22'918.5
2017-May-20 05:01N 38°54' E 015°15'918.6
2017-May-20 04:30N 39°03' E 015°09'8518.9
2017-May-20 00:00N 40°00' E 013°48'5618.6 240 / 171015.0 5.4 19.6
2017-May-19 21:00N 40°42' E 013°00'10217.1 190 / 141015.010.8 21.1 20.9
2017-May-19 15:00N 42°06' E 011°42'0 0.0 150 / 231015.0 5.4 20.4
2017-May-19 13:00N 42°06' E 011°42'0 0.0 150 / 151015.0 5.4 20.0 18.0
2017-May-19 10:00N 42°06' E 011°42'3 1.9 160 / 171016.010.8 23.2 18.7
2017-May-19 08:14N 42°06' E 011°46'3 0.6
2017-May-19 03:00N 42°06' E 011°42'21 8.5 160 / 51020.0 5.4 19.0
2017-May-19 00:31N 41°57' E 011°17'013.7
2017-May-19 00:30N 41°56' E 011°17'714.1
2017-May-19 00:00N 41°54' E 011°08'8506.3
2017-May-19 00:00N 41°48' E 011°00'3 5.9 120 / 151014.0 5.4 18.9 18.0
2017-May-18 23:30N 41°51' E 010°58'1016.5
2017-May-18 22:55N 41°47' E 010°46'1916.9
2017-May-18 21:48N 41°40' E 010°22'516.6
2017-May-18 21:30N 41°38' E 010°16'816.7
2017-May-18 21:00N 41°35' E 010°06'159.7
2017-May-18 21:00N 41°36' E 010°06'817.5 140 / 151015.010.8 20.2 19.3
2017-May-18 20:30N 41°32' E 009°56'916.4
2017-May-18 19:59N 41°29' E 009°45'816.2
2017-May-18 19:30N 41°26' E 009°36'916.0
2017-May-18 18:56N 41°23' E 009°24'715.6
2017-May-18 18:29N 41°18' E 009°17'815.1
2017-May-18 17:59N 41°18' E 009°07'815.5
2017-May-18 17:30N 41°17' E 008°57'815.9
2017-May-18 17:00N 41°16' E 008°47'815.7
2017-May-18 16:31N 41°14' E 008°37'1324.8
2017-May-18 16:00N 41°24' E 008°48'207144.5
2017-May-18 15:59N 41°13' E 008°26'715.4
2017-May-18 15:30N 41°10' E 008°17'815.5
2017-May-18 15:00N 41°07' E 008°08'1615.6
2017-May-18 14:00N 40°59' E 007°50'815.6
2017-May-18 13:30N 40°55' E 007°41'815.6
2017-May-18 13:00N 40°51' E 007°32'7999.2
2017-May-18 13:00N 40°48' E 007°24'1 2.6 150 / 41015.0 5.4 20.1 18.0
2017-May-18 12:30N 40°48' E 007°22'815.6
2017-May-18 11:59N 40°45' E 007°13'815.7
2017-May-18 11:29N 40°41' E 007°04'715.7
2017-May-18 11:00N 40°37' E 006°55'815.5
2017-May-18 10:31N 40°34' E 006°46'815.4
2017-May-18 10:01N 40°30' E 006°37'12683.5
2017-May-18 10:00N 40°24' E 006°24'4 8.4 120 / 121015.010.8 21.4 19.9
2017-May-18 09:31N 40°26' E 006°28'815.2
2017-May-18 09:00N 40°23' E 006°20'815.0
2017-May-18 08:29N 40°19' E 006°11'814.9
2017-May-18 07:59N 40°15' E 006°02'815.4
2017-May-18 07:29N 40°12' E 005°53'1515.4
2017-May-18 06:32N 40°05' E 005°36'115.2
2017-May-18 06:30N 40°05' E 005°36'715.4
2017-May-18 06:01N 40°01' E 005°27'815.6
2017-May-18 05:31N 39°57' E 005°18'815.7
2017-May-18 05:01N 39°53' E 005°09'2132.4
2017-May-18 05:00N 39°54' E 005°12'1020.8 110 / 81015.0 5.4 18.9
2017-May-18 04:30N 39°50' E 005°00'815.8
2017-May-18 03:59N 39°45' E 004°51'815.8
2017-May-18 03:29N 39°42' E 004°42'815.5
2017-May-18 02:59N 39°38' E 004°33'715.6
2017-May-18 02:30N 39°34' E 004°25'815.4
2017-May-18 02:01N 39°31' E 004°16'815.5
2017-May-18 01:30N 39°27' E 004°07'815.5
2017-May-18 00:59N 39°24' E 003°57'715.5
2017-May-18 00:31N 39°20' E 003°49'815.6
2017-May-18 00:01N 39°16' E 003°40'815.5
2017-May-17 23:30N 39°13' E 003°31'815.5
2017-May-17 23:00N 39°09' E 003°23'815.4
2017-May-17 22:31N 39°06' E 003°14'815.6
2017-May-17 22:00N 39°05' E 003°04'815.7
2017-May-17 21:30N 39°04' E 002°54'815.3
2017-May-17 21:01N 39°03' E 002°44'7397.9
2017-May-17 21:00N 39°00' E 002°36'2 4.2 070 / 71018.010.8 20.5 20.5
2017-May-17 20:30N 39°01' E 002°34'815.6
2017-May-17 20:00N 39°00' E 002°24'815.7
2017-May-17 19:30N 38°59' E 002°14'815.6
2017-May-17 19:01N 38°58' E 002°04'815.5
2017-May-17 18:30N 38°57' E 001°54'815.4
2017-May-17 18:00N 38°56' E 001°45'815.5
2017-May-17 17:30N 38°55' E 001°35'612.2
2017-May-17 17:00N 38°54' E 001°27'13316.6
2017-May-17 09:00N 38°54' W 001°24'13341.4 070 / 71021.010.8 21.8 20.4
2017-May-17 05:47N 38°54' E 001°27'0 0.9
2017-May-17 05:25N 38°54' E 001°27'2 4.7
2017-May-17 05:00N 38°53' E 001°29'13916176.8
2017-May-17 05:00N 38°48' W 001°30'143287.4 030 / 131024.0 5.4 19.1
2017-May-17 04:30N 38°48' E 001°33'612.8
2017-May-17 04:00N 38°43' E 001°38'612.5
2017-May-17 03:30N 38°37' E 001°37'613.0
2017-May-17 03:00N 38°33' E 001°31'713.0
2017-May-17 02:30N 38°29' E 001°24'712.8
2017-May-17 01:57N 38°25' E 001°16'613.1
2017-May-17 01:30N 38°22' E 001°10'612.9
2017-May-17 01:00N 38°18' E 001°03'2146.5
2017-May-17 01:00N 38°18' E 001°06'816.6 010 / 131022.0 5.4 19.0 18.0
2017-May-17 00:30N 38°15' E 000°56'612.8
2017-May-17 00:00N 38°11' E 000°50'612.9
2017-May-16 23:30N 38°08' E 000°43'713.1
2017-May-16 23:00N 38°04' E 000°36'612.9
2017-May-16 22:30N 38°00' E 000°29'612.9
2017-May-16 22:00N 37°56' E 000°23'5307.9
2017-May-16 22:00N 37°54' E 000°18'2 4.2 050 / 131023.010.8 20.7 19.6
2017-May-16 21:30N 37°53' E 000°16'612.8
2017-May-16 21:00N 37°49' E 000°09'612.7
2017-May-16 20:30N 37°45' E 000°03'612.8
2017-May-16 20:00N 37°42' W 000°04'713.0
2017-May-16 19:30N 37°38' W 000°11'612.9
2017-May-16 19:00N 37°35' W 000°17'612.7
2017-May-16 18:30N 37°31' W 000°24'612.2
2017-May-16 18:00N 37°29' W 000°31'712.9
2017-May-16 17:30N 37°29' W 000°40'613.0
2017-May-16 17:00N 37°29' W 000°48'5352.0
2017-May-16 17:00N 37°24' W 000°48'8 1.9 030 / 191023.0 5.4 19.8
2017-May-16 13:00N 37°30' W 000°54'   050 / 91024.0 5.4 24.3 18.0

Dump ship's entire track history